• Join FlightAware (Why Join?)
  • Login
  • US Flag 
Gobble Gobble! 
08:45PM EST


 

Airport Tracker/Info


-or-


 

Live Flight TrackerFlight Track Log ✈ N629SA ✈ 23-Oct-2013 ✈ KDAB - KAPF

Flight Track Log - Related Links

Times and Time Zones

All times are in EDT time to prevent confusion due to time zone crossing. See the N629SA flight status page for this flight to view local times or setup timezone preferences in your user account.

Time Position Orientation Groundspeed Altitude Reporting Facility
EDT Latitude Longitude Course Direction KTS MPH feet Rate Location/Type
11:35PM 29.0667 -81.1500 132° Southeast 116 133 5,100  Level Orlando TRACON
11:36PM 29.0500 -81.1167 120° Southeast 114 131 6,000 420 Climbing Orlando TRACON
11:37PM 29.0333 -81.0833 120° Southeast 151 174 6,000  Level Orlando TRACON
11:38PM 28.8886 -81.1289 164° South  Level Estimated
11:38PM 29.0167 -81.0500 120° Southeast 162 186 6,000  Level Orlando TRACON
11:39PM 28.8627 -81.0957 132° Southeast  Level FlightAware Approximate
11:39PM 29.0000 -81.0000 111° Southeast 155 178 6,000  Level Orlando TRACON
11:40PM 28.8368 -81.0626 132° Southeast  Level FlightAware Approximate
11:40PM 28.9667 -80.9667 139° Southeast 162 186 6,000  Level Orlando TRACON
11:41PM 28.9167 -80.9500 164° South 160 184 6,000  Level Orlando TRACON
11:42PM 28.8833 -80.9333 156° South 158 182 6,000  Level Orlando TRACON
11:43PM 28.8333 -80.9167 164° South 158 182 6,000  Level Orlando TRACON
11:44PM 28.8000 -80.9000 156° South 157 181 6,000  Level Orlando TRACON
11:45PM 28.7500 -80.8833 164° South 158 182 6,000  Level Orlando TRACON
11:46PM 28.7167 -80.8833 180° South 157 181 6,000  Level Orlando TRACON
11:47PM 28.6667 -80.8667 164° South 157 181 6,000  Level Orlando TRACON
11:48PM 28.6167 -80.8333 150° Southeast 159 183 6,000  Level Orlando TRACON
11:49PM 28.5833 -80.8167 156° South 159 183 6,000  Level Orlando TRACON
11:50PM 28.5333 -80.8000 164° South 162 186 6,000  Level Orlando TRACON
11:51PM 28.5000 -80.8000 180° South 161 185 6,000  Level Orlando TRACON
11:52PM 28.4667 -80.7667 139° Southeast 161 185 6,000  Level Orlando TRACON
11:53PM 28.4167 -80.7500 164° South 160 184 6,000  Level Orlando TRACON
11:54PM 28.3833 -80.7333 156° South 160 184 6,000  Level Orlando TRACON
11:56PM 28.2844 -80.7089 168° South 160 184 6,000  Level Miami Center
11:57PM 28.2431 -80.6933 162° South 166 191 6,000  Level Miami Center
11:58PM 28.1997 -80.6753 160° South 160 184 6,000  Level Miami Center
11:59PM 28.1586 -80.6575 159° South 160 184 6,100  Climbing Miami Center
12:00AM 28.1131 -80.6419 163° South 165 190 6,100  Level Miami Center
12:01AM 28.0758 -80.6289 163° South 165 190 6,100 -60 Level Miami Center
12:02AM 28.0344 -80.6133 162° South 165 190 6,000 -60 Descending Miami Center
12:03AM 27.9925 -80.6283 198° South 154 177 6,000  Level Miami Center
12:04AM 27.9561 -80.6556 213° Southwest 154 177 6,000  Level Miami Center
12:05AM 27.9200 -80.6800 211° Southwest 161 185 6,100  Climbing Miami Center
12:06AM 27.8839 -80.7022 209° Southwest 161 185 6,000 -60 Descending Miami Center
12:07AM 27.8478 -80.7247 209° Southwest 161 185 6,000  Level Miami Center
12:08AM 27.8056 -80.7514 209° Southwest 161 185 6,000  Level Miami Center
12:09AM 27.7672 -80.7758 209° Southwest 161 185 6,000  Level Miami Center
12:11AM 27.7197 -80.8267 207° Southwest  Level FlightAware Approximate
12:18AM 27.4755 -80.9648 207° Southwest  Level FlightAware Approximate
12:19AM 27.4406 -80.9844 207° Southwest  Level FlightAware Approximate
12:20AM 27.4057 -81.0041 207° Southwest  Level FlightAware Approximate
12:21AM 27.3714 -81.0250 212° Southwest  Level FlightAware Approximate
12:22AM 27.3381 -81.0480 212° Southwest  Level FlightAware Approximate
12:23AM 27.3049 -81.0710 212° Southwest  Level FlightAware Approximate
12:24AM 27.2717 -81.0940 212° Southwest  Level FlightAware Approximate
12:25AM 27.2384 -81.1171 212° Southwest  Level FlightAware Approximate
12:26AM 27.2052 -81.1400 212° Southwest  Level FlightAware Approximate
12:27AM 27.1720 -81.1630 212° Southwest  Level FlightAware Approximate
12:28AM 27.1373 -81.1832 207° Southwest  Level FlightAware Approximate
12:29AM 27.1024 -81.2029 207° Southwest  Level FlightAware Approximate
12:30AM 27.0676 -81.2225 207° Southwest  Level FlightAware Approximate
12:31AM 27.0327 -81.2421 207° Southwest  Level FlightAware Approximate
12:32AM 26.9978 -81.2617 207° Southwest  Level FlightAware Approximate
12:33AM 26.9629 -81.2814 207° Southwest  Level FlightAware Approximate
12:34AM 26.9280 -81.3009 207° Southwest  Level FlightAware Approximate
12:35AM 26.8932 -81.3207 208° Southwest  Level FlightAware Approximate
12:36AM 26.8586 -81.3409 208° Southwest  Level FlightAware Approximate
12:37AM 26.8240 -81.3612 208° Southwest  Level FlightAware Approximate
12:38AM 26.7894 -81.3814 208° Southwest  Level FlightAware Approximate
12:39AM 26.7548 -81.4016 208° Southwest  Level FlightAware Approximate
12:40AM 26.7202 -81.4218 208° Southwest  Level FlightAware Approximate
12:41AM 26.6856 -81.4420 208° Southwest  Level FlightAware Approximate
12:42AM 26.6510 -81.4622 208° Southwest  Level FlightAware Approximate
12:43AM 26.6164 -81.4823 208° Southwest  Level FlightAware Approximate
12:44AM 26.5818 -81.5025 208° Southwest  Level FlightAware Approximate
12:45AM 26.5471 -81.5226 207° Southwest  Level FlightAware Approximate
12:46AM 26.5125 -81.5427 207° Southwest  Level FlightAware Approximate
12:47AM 26.4786 -81.5643 211° Southwest  Level FlightAware Approximate
12:48AM 26.4449 -81.5863 207° Southwest  Level FlightAware Approximate
12:49AM 26.4102 -81.6061 207° Southwest  Level FlightAware Approximate
12:50AM 26.3754 -81.6260 207° Southwest  Level FlightAware Approximate
12:51AM 26.3407 -81.6459 207° Southwest  Level FlightAware Approximate
12:52AM 26.3060 -81.6657 207° Southwest  Level FlightAware Approximate
12:53AM 26.2712 -81.6855 207° Southwest  Level FlightAware Approximate
12:54AM 26.2365 -81.7054 207° Southwest  Level FlightAware Approximate
12:55AM 26.2028 -81.7271 214° Southwest  Level FlightAware Approximate
12:56AM 26.1704 -81.7514 214° Southwest  Level FlightAware Approximate
12:57AM 26.1500 -81.7667 214° Southwest  Level FlightAware Approximate
12:58AM 26.1524 -81.7756 214° Southwest  Level Estimated
12:59AM 26.1524 -81.7756 214° Southwest  Level Estimated
01:00AM 26.1524 -81.7756 214° Southwest  Level Estimated
01:01AM 26.1524 -81.7756 214° Southwest  Level Estimated
01:02AM 26.1524 -81.7756 214° Southwest  Level Estimated
01:03AM 26.1524 -81.7756 214° Southwest  Level Estimated
01:04AM 26.1524 -81.7756 214° Southwest  Level Estimated
01:05AM 26.1524 -81.7756 214° Southwest  Level Estimated
01:06AM 26.1524 -81.7756 214° Southwest  Level Estimated
01:07AM 26.1524 -81.7756 214° Southwest  Level Estimated
01:08AM 26.1524 -81.7756 214° Southwest  Level Estimated
01:09AM 26.1524 -81.7756 214° Southwest  Level Estimated
01:10AM 26.1524 -81.7756 214° Southwest  Level Estimated
01:11AM 26.1524 -81.7756 214° Southwest  Level Estimated
01:12AM 26.1524 -81.7756 214° Southwest  Level Estimated